sensor_id;sensor_type;location;lat;lon;timestamp;P1;durP1;ratioP1;P2;durP2;ratioP2
11039;SDS011;5573;49.592;8.662;2022-08-05T00:01:14;46.55;;;44.15;;
11039;SDS011;5573;49.592;8.662;2022-08-05T00:04:13;48.38;;;45.83;;
11039;SDS011;5573;49.592;8.662;2022-08-05T00:07:02;46.05;;;43.65;;
11039;SDS011;5573;49.592;8.662;2022-08-05T00:10:11;48.30;;;45.83;;
11039;SDS011;5573;49.592;8.662;2022-08-05T00:13:00;46.75;;;44.33;;
11039;SDS011;5573;49.592;8.662;2022-08-05T00:15:48;46.03;;;43.60;;
11039;SDS011;5573;49.592;8.662;2022-08-05T00:18:44;51.20;;;48.53;;
11039;SDS011;5573;49.592;8.662;2022-08-05T00:21:34;53.13;;;50.35;;
11039;SDS011;5573;49.592;8.662;2022-08-05T00:24:22;62.17;;;58.92;;
11039;SDS011;5573;49.592;8.662;2022-08-05T00:27:18;63.92;;;60.35;;
11039;SDS011;5573;49.592;8.662;2022-08-05T00:30:14;70.68;;;66.93;;
11039;SDS011;5573;49.592;8.662;2022-08-05T00:33:03;76.40;;;72.50;;
11039;SDS011;5573;49.592;8.662;2022-08-05T00:36:01;78.18;;;74.07;;
11039;SDS011;5573;49.592;8.662;2022-08-05T00:39:10;79.03;;;74.90;;
11039;SDS011;5573;49.592;8.662;2022-08-05T00:41:59;78.28;;;74.22;;
11039;SDS011;5573;49.592;8.662;2022-08-05T00:44:49;78.30;;;74.20;;
11039;SDS011;5573;49.592;8.662;2022-08-05T00:47:37;76.00;;;71.97;;
11039;SDS011;5573;49.592;8.662;2022-08-05T00:50:45;74.85;;;70.80;;
11039;SDS011;5573;49.592;8.662;2022-08-05T00:53:34;73.93;;;69.75;;
11039;SDS011;5573;49.592;8.662;2022-08-05T00:56:42;72.75;;;68.90;;
11039;SDS011;5573;49.592;8.662;2022-08-05T00:59:37;76.35;;;72.25;;
11039;SDS011;5573;49.592;8.662;2022-08-05T01:02:32;69.90;;;66.25;;
11039;SDS011;5573;49.592;8.662;2022-08-05T01:05:20;72.47;;;68.60;;
11039;SDS011;5573;49.592;8.662;2022-08-05T01:08:08;67.07;;;63.55;;
11039;SDS011;5573;49.592;8.662;2022-08-05T01:11:18;65.63;;;62.15;;
11039;SDS011;5573;49.592;8.662;2022-08-05T01:14:23;63.78;;;60.40;;
11039;SDS011;5573;49.592;8.662;2022-08-05T01:17:16;56.22;;;53.30;;
11039;SDS011;5573;49.592;8.662;2022-08-05T01:20:15;56.78;;;53.75;;
11039;SDS011;5573;49.592;8.662;2022-08-05T01:23:15;55.28;;;52.35;;
11039;SDS011;5573;49.592;8.662;2022-08-05T01:26:25;53.67;;;50.85;;
11039;SDS011;5573;49.592;8.662;2022-08-05T01:29:26;53.13;;;50.33;;
11039;SDS011;5573;49.592;8.662;2022-08-05T01:32:21;53.70;;;50.80;;
11039;SDS011;5573;49.592;8.662;2022-08-05T01:35:14;52.42;;;49.60;;
11039;SDS011;5573;49.592;8.662;2022-08-05T01:38:24;47.92;;;45.38;;
11039;SDS011;5573;49.592;8.662;2022-08-05T01:41:16;51.08;;;48.33;;
11039;SDS011;5573;49.592;8.662;2022-08-05T01:44:11;48.88;;;46.22;;
11039;SDS011;5573;49.592;8.662;2022-08-05T01:47:02;49.78;;;47.10;;
11039;SDS011;5573;49.592;8.662;2022-08-05T01:49:55;46.60;;;44.03;;
11039;SDS011;5573;49.592;8.662;2022-08-05T01:52:48;46.42;;;44.00;;
11039;SDS011;5573;49.592;8.662;2022-08-05T01:55:39;45.22;;;42.75;;
11039;SDS011;5573;49.592;8.662;2022-08-05T01:58:30;47.38;;;44.90;;
11039;SDS011;5573;49.592;8.662;2022-08-05T02:01:35;44.03;;;41.70;;
11039;SDS011;5573;49.592;8.662;2022-08-05T02:04:27;43.80;;;41.47;;
11039;SDS011;5573;49.592;8.662;2022-08-05T02:07:21;44.05;;;41.75;;
11039;SDS011;5573;49.592;8.662;2022-08-05T02:10:15;41.92;;;39.65;;
11039;SDS011;5573;49.592;8.662;2022-08-05T02:13:14;42.70;;;40.47;;
11039;SDS011;5573;49.592;8.662;2022-08-05T02:16:10;42.38;;;40.15;;
11039;SDS011;5573;49.592;8.662;2022-08-05T02:19:11;46.45;;;43.95;;
11039;SDS011;5573;49.592;8.662;2022-08-05T02:22:12;41.22;;;38.97;;
11039;SDS011;5573;49.592;8.662;2022-08-05T02:25:13;40.20;;;38.08;;
11039;SDS011;5573;49.592;8.662;2022-08-05T02:28:07;39.65;;;37.55;;
11039;SDS011;5573;49.592;8.662;2022-08-05T02:31:01;42.92;;;40.60;;
11039;SDS011;5573;49.592;8.662;2022-08-05T02:34:01;41.03;;;38.88;;
11039;SDS011;5573;49.592;8.662;2022-08-05T02:36:56;37.45;;;35.40;;
11039;SDS011;5573;49.592;8.662;2022-08-05T02:39:51;40.90;;;38.70;;
11039;SDS011;5573;49.592;8.662;2022-08-05T02:42:40;39.10;;;37.08;;
11039;SDS011;5573;49.592;8.662;2022-08-05T02:45:38;38.53;;;36.45;;
11039;SDS011;5573;49.592;8.662;2022-08-05T02:48:38;36.55;;;34.60;;
11039;SDS011;5573;49.592;8.662;2022-08-05T02:51:29;37.22;;;35.33;;
11039;SDS011;5573;49.592;8.662;2022-08-05T02:54:38;37.33;;;35.35;;
11039;SDS011;5573;49.592;8.662;2022-08-05T02:57:39;38.33;;;35.83;;
11039;SDS011;5573;49.592;8.662;2022-08-05T03:00:47;38.50;;;36.45;;
11039;SDS011;5573;49.592;8.662;2022-08-05T03:03:38;41.15;;;38.97;;
11039;SDS011;5573;49.592;8.662;2022-08-05T03:06:47;42.78;;;40.50;;
11039;SDS011;5573;49.592;8.662;2022-08-05T03:09:44;42.47;;;40.20;;
11039;SDS011;5573;49.592;8.662;2022-08-05T03:12:38;43.22;;;40.95;;
11039;SDS011;5573;49.592;8.662;2022-08-05T03:15:28;45.65;;;43.17;;
11039;SDS011;5573;49.592;8.662;2022-08-05T03:18:19;42.38;;;40.20;;
11039;SDS011;5573;49.592;8.662;2022-08-05T03:21:15;41.53;;;39.30;;
11039;SDS011;5573;49.592;8.662;2022-08-05T03:24:05;43.90;;;41.60;;
11039;SDS011;5573;49.592;8.662;2022-08-05T03:26:58;46.15;;;43.72;;
11039;SDS011;5573;49.592;8.662;2022-08-05T03:29:48;48.38;;;45.78;;
11039;SDS011;5573;49.592;8.662;2022-08-05T03:32:54;52.33;;;49.58;;
11039;SDS011;5573;49.592;8.662;2022-08-05T03:35:43;53.97;;;51.15;;
11039;SDS011;5573;49.592;8.662;2022-08-05T03:38:32;65.50;;;62.05;;
11039;SDS011;5573;49.592;8.662;2022-08-05T03:41:23;85.43;;;80.85;;
11039;SDS011;5573;49.592;8.662;2022-08-05T03:44:18;100.82;;;95.35;;
11039;SDS011;5573;49.592;8.662;2022-08-05T03:47:07;107.38;;;101.65;;
11039;SDS011;5573;49.592;8.662;2022-08-05T03:49:59;135.07;;;127.88;;
11039;SDS011;5573;49.592;8.662;2022-08-05T03:52:49;148.68;;;140.85;;
11039;SDS011;5573;49.592;8.662;2022-08-05T03:56:09;177.27;;;167.80;;
11039;SDS011;5573;49.592;8.662;2022-08-05T03:59:15;209.18;;;197.80;;
11039;SDS011;5573;49.592;8.662;2022-08-05T04:02:07;222.35;;;210.32;;
11039;SDS011;5573;49.592;8.662;2022-08-05T04:05:03;241.07;;;227.93;;
11039;SDS011;5573;49.592;8.662;2022-08-05T04:07:55;224.45;;;211.90;;
11039;SDS011;5573;49.592;8.662;2022-08-05T04:10:44;177.88;;;168.38;;
11039;SDS011;5573;49.592;8.662;2022-08-05T04:13:34;162.95;;;153.80;;
11039;SDS011;5573;49.592;8.662;2022-08-05T04:16:37;152.20;;;143.73;;
11039;SDS011;5573;49.592;8.662;2022-08-05T04:19:28;124.55;;;117.57;;
11039;SDS011;5573;49.592;8.662;2022-08-05T04:22:16;123.75;;;116.82;;
11039;SDS011;5573;49.592;8.662;2022-08-05T04:25:07;108.88;;;102.72;;
11039;SDS011;5573;49.592;8.662;2022-08-05T04:27:56;113.75;;;107.35;;
11039;SDS011;5573;49.592;8.662;2022-08-05T04:30:49;97.80;;;92.45;;
11039;SDS011;5573;49.592;8.662;2022-08-05T04:33:37;76.97;;;72.97;;
11039;SDS011;5573;49.592;8.662;2022-08-05T04:36:47;65.43;;;61.92;;
11039;SDS011;5573;49.592;8.662;2022-08-05T04:39:36;66.20;;;62.65;;
11039;SDS011;5573;49.592;8.662;2022-08-05T04:42:25;63.75;;;60.35;;
11039;SDS011;5573;49.592;8.662;2022-08-05T04:45:13;60.55;;;57.17;;
11039;SDS011;5573;49.592;8.662;2022-08-05T04:48:22;53.88;;;50.97;;
11039;SDS011;5573;49.592;8.662;2022-08-05T04:51:13;51.83;;;48.85;;
11039;SDS011;5573;49.592;8.662;2022-08-05T04:54:05;55.63;;;52.70;;
11039;SDS011;5573;49.592;8.662;2022-08-05T04:56:55;56.97;;;53.90;;
11039;SDS011;5573;49.592;8.662;2022-08-05T04:59:45;58.50;;;55.10;;
11039;SDS011;5573;49.592;8.662;2022-08-05T05:02:34;63.38;;;60.03;;
11039;SDS011;5573;49.592;8.662;2022-08-05T05:05:29;68.97;;;65.32;;
11039;SDS011;5573;49.592;8.662;2022-08-05T05:08:17;80.57;;;76.35;;
11039;SDS011;5573;49.592;8.662;2022-08-05T05:11:17;87.50;;;82.68;;
11039;SDS011;5573;49.592;8.662;2022-08-05T05:14:06;88.72;;;83.97;;
11039;SDS011;5573;49.592;8.662;2022-08-05T05:17:02;87.10;;;82.43;;
11039;SDS011;5573;49.592;8.662;2022-08-05T05:19:55;88.13;;;83.32;;
11039;SDS011;5573;49.592;8.662;2022-08-05T05:22:43;89.03;;;84.15;;
11039;SDS011;5573;49.592;8.662;2022-08-05T05:25:31;93.38;;;88.30;;
11039;SDS011;5573;49.592;8.662;2022-08-05T05:28:28;88.78;;;84.00;;
11039;SDS011;5573;49.592;8.662;2022-08-05T05:31:16;92.28;;;87.30;;
11039;SDS011;5573;49.592;8.662;2022-08-05T05:34:06;82.72;;;78.28;;
11039;SDS011;5573;49.592;8.662;2022-08-05T05:36:54;81.60;;;77.15;;
11039;SDS011;5573;49.592;8.662;2022-08-05T05:39:42;86.40;;;81.72;;
11039;SDS011;5573;49.592;8.662;2022-08-05T05:42:30;86.47;;;81.80;;
11039;SDS011;5573;49.592;8.662;2022-08-05T05:45:21;77.25;;;73.18;;
11039;SDS011;5573;49.592;8.662;2022-08-05T05:48:10;71.50;;;67.75;;
11039;SDS011;5573;49.592;8.662;2022-08-05T05:51:01;65.60;;;62.15;;
11039;SDS011;5573;49.592;8.662;2022-08-05T05:54:01;64.35;;;60.95;;
11039;SDS011;5573;49.592;8.662;2022-08-05T05:56:49;62.40;;;59.13;;
11039;SDS011;5573;49.592;8.662;2022-08-05T05:59:38;61.92;;;58.63;;
11039;SDS011;5573;49.592;8.662;2022-08-05T06:02:30;66.55;;;63.05;;
11039;SDS011;5573;49.592;8.662;2022-08-05T06:05:23;58.67;;;55.55;;
11039;SDS011;5573;49.592;8.662;2022-08-05T06:08:12;57.33;;;54.25;;
11039;SDS011;5573;49.592;8.662;2022-08-05T06:11:17;51.38;;;48.65;;
11039;SDS011;5573;49.592;8.662;2022-08-05T06:14:05;45.22;;;42.80;;
11039;SDS011;5573;49.592;8.662;2022-08-05T06:16:54;43.92;;;41.58;;
11039;SDS011;5573;49.592;8.662;2022-08-05T06:19:44;39.72;;;37.63;;
11039;SDS011;5573;49.592;8.662;2022-08-05T06:22:45;36.75;;;34.83;;
11039;SDS011;5573;49.592;8.662;2022-08-05T06:25:33;37.53;;;35.55;;
11039;SDS011;5573;49.592;8.662;2022-08-05T06:28:41;38.67;;;36.65;;
11039;SDS011;5573;49.592;8.662;2022-08-05T06:31:31;38.67;;;36.67;;
11039;SDS011;5573;49.592;8.662;2022-08-05T06:34:19;37.25;;;35.25;;
11039;SDS011;5573;49.592;8.662;2022-08-05T06:37:13;37.70;;;35.70;;
11039;SDS011;5573;49.592;8.662;2022-08-05T06:40:22;34.88;;;33.05;;
11039;SDS011;5573;49.592;8.662;2022-08-05T06:43:18;37.20;;;35.00;;
11039;SDS011;5573;49.592;8.662;2022-08-05T06:46:26;32.80;;;31.05;;
11039;SDS011;5573;49.592;8.662;2022-08-05T06:49:16;31.42;;;29.75;;
11039;SDS011;5573;49.592;8.662;2022-08-05T06:52:07;26.15;;;24.80;;
11039;SDS011;5573;49.592;8.662;2022-08-05T06:55:16;28.85;;;27.35;;
11039;SDS011;5573;49.592;8.662;2022-08-05T06:58:04;30.05;;;28.45;;
11039;SDS011;5573;49.592;8.662;2022-08-05T07:01:12;30.48;;;28.85;;
11039;SDS011;5573;49.592;8.662;2022-08-05T07:04:06;28.70;;;27.23;;
11039;SDS011;5573;49.592;8.662;2022-08-05T07:06:55;25.13;;;23.83;;
11039;SDS011;5573;49.592;8.662;2022-08-05T07:09:43;20.83;;;19.73;;
11039;SDS011;5573;49.592;8.662;2022-08-05T07:12:42;15.98;;;15.18;;
11039;SDS011;5573;49.592;8.662;2022-08-05T07:15:47;14.07;;;13.25;;
11039;SDS011;5573;49.592;8.662;2022-08-05T07:18:57;13.73;;;13.02;;
11039;SDS011;5573;49.592;8.662;2022-08-05T07:21:48;13.80;;;13.10;;
11039;SDS011;5573;49.592;8.662;2022-08-05T07:24:46;13.75;;;13.05;;
11039;SDS011;5573;49.592;8.662;2022-08-05T07:27:39;14.77;;;13.98;;
11039;SDS011;5573;49.592;8.662;2022-08-05T07:30:48;13.95;;;13.20;;
11039;SDS011;5573;49.592;8.662;2022-08-05T07:33:40;12.40;;;11.80;;
11039;SDS011;5573;49.592;8.662;2022-08-05T07:36:28;12.85;;;12.13;;
11039;SDS011;5573;49.592;8.662;2022-08-05T07:39:18;17.33;;;16.42;;
11039;SDS011;5573;49.592;8.662;2022-08-05T07:42:26;18.77;;;17.77;;
11039;SDS011;5573;49.592;8.662;2022-08-05T07:45:21;21.58;;;20.17;;
11039;SDS011;5573;49.592;8.662;2022-08-05T07:48:31;22.33;;;21.13;;
11039;SDS011;5573;49.592;8.662;2022-08-05T07:51:39;23.65;;;22.45;;
11039;SDS011;5573;49.592;8.662;2022-08-05T07:54:40;23.05;;;21.85;;
11039;SDS011;5573;49.592;8.662;2022-08-05T07:57:34;22.15;;;20.95;;
11039;SDS011;5573;49.592;8.662;2022-08-05T08:00:43;19.98;;;18.98;;
11039;SDS011;5573;49.592;8.662;2022-08-05T08:03:33;23.10;;;21.90;;
11039;SDS011;5573;49.592;8.662;2022-08-05T08:06:30;21.23;;;20.13;;
11039;SDS011;5573;49.592;8.662;2022-08-05T08:09:19;19.50;;;18.50;;
11039;SDS011;5573;49.592;8.662;2022-08-05T08:12:07;16.95;;;16.13;;
11039;SDS011;5573;49.592;8.662;2022-08-05T08:15:16;17.70;;;16.80;;
11039;SDS011;5573;49.592;8.662;2022-08-05T08:18:24;17.05;;;16.20;;
11039;SDS011;5573;49.592;8.662;2022-08-05T08:21:13;17.92;;;17.02;;
11039;SDS011;5573;49.592;8.662;2022-08-05T08:24:03;18.30;;;17.40;;
11039;SDS011;5573;49.592;8.662;2022-08-05T08:26:59;18.10;;;17.20;;
11039;SDS011;5573;49.592;8.662;2022-08-05T08:29:52;19.58;;;18.48;;
11039;SDS011;5573;49.592;8.662;2022-08-05T08:33:05;20.40;;;19.30;;
11039;SDS011;5573;49.592;8.662;2022-08-05T08:35:59;21.85;;;20.75;;
11039;SDS011;5573;49.592;8.662;2022-08-05T08:39:08;22.30;;;21.13;;
11039;SDS011;5573;49.592;8.662;2022-08-05T08:42:01;21.90;;;20.65;;
11039;SDS011;5573;49.592;8.662;2022-08-05T08:45:10;21.20;;;20.10;;
11039;SDS011;5573;49.592;8.662;2022-08-05T08:48:12;20.85;;;19.75;;
11039;SDS011;5573;49.592;8.662;2022-08-05T08:51:22;19.25;;;18.25;;
11039;SDS011;5573;49.592;8.662;2022-08-05T08:54:32;22.13;;;21.02;;
11039;SDS011;5573;49.592;8.662;2022-08-05T08:57:22;28.17;;;26.75;;
11039;SDS011;5573;49.592;8.662;2022-08-05T09:00:28;26.15;;;24.75;;
11039;SDS011;5573;49.592;8.662;2022-08-05T09:03:18;21.02;;;19.92;;
11039;SDS011;5573;49.592;8.662;2022-08-05T09:06:08;21.77;;;20.65;;
11039;SDS011;5573;49.592;8.662;2022-08-05T09:08:59;23.73;;;22.48;;
11039;SDS011;5573;49.592;8.662;2022-08-05T09:11:49;24.40;;;23.17;;
11039;SDS011;5573;49.592;8.662;2022-08-05T09:14:45;24.50;;;23.25;;
11039;SDS011;5573;49.592;8.662;2022-08-05T09:17:44;27.27;;;25.88;;
11039;SDS011;5573;49.592;8.662;2022-08-05T09:20:35;25.27;;;23.95;;
11039;SDS011;5573;49.592;8.662;2022-08-05T09:23:24;26.80;;;25.45;;
11039;SDS011;5573;49.592;8.662;2022-08-05T09:26:14;30.95;;;29.33;;
11039;SDS011;5573;49.592;8.662;2022-08-05T09:29:09;32.08;;;30.45;;
11039;SDS011;5573;49.592;8.662;2022-08-05T09:32:05;28.48;;;26.98;;
11039;SDS011;5573;49.592;8.662;2022-08-05T09:35:15;23.52;;;22.33;;
11039;SDS011;5573;49.592;8.662;2022-08-05T09:38:13;23.90;;;22.60;;
11039;SDS011;5573;49.592;8.662;2022-08-05T09:41:15;17.75;;;16.85;;
11039;SDS011;5573;49.592;8.662;2022-08-05T09:44:04;17.45;;;16.55;;
11039;SDS011;5573;49.592;8.662;2022-08-05T09:47:05;15.30;;;14.50;;
11039;SDS011;5573;49.592;8.662;2022-08-05T09:49:59;14.05;;;13.35;;
11039;SDS011;5573;49.592;8.662;2022-08-05T09:52:49;13.90;;;13.20;;
11039;SDS011;5573;49.592;8.662;2022-08-05T09:55:44;23.40;;;22.20;;
11039;SDS011;5573;49.592;8.662;2022-08-05T09:58:54;22.88;;;21.70;;
11039;SDS011;5573;49.592;8.662;2022-08-05T10:01:43;22.55;;;21.42;;
11039;SDS011;5573;49.592;8.662;2022-08-05T10:04:34;24.63;;;23.42;;
11039;SDS011;5573;49.592;8.662;2022-08-05T10:07:40;20.48;;;19.48;;
11039;SDS011;5573;49.592;8.662;2022-08-05T10:10:50;17.40;;;16.40;;
11039;SDS011;5573;49.592;8.662;2022-08-05T10:13:40;16.13;;;15.32;;
11039;SDS011;5573;49.592;8.662;2022-08-05T10:16:34;17.23;;;16.23;;
11039;SDS011;5573;49.592;8.662;2022-08-05T10:19:40;19.10;;;18.10;;
11039;SDS011;5573;49.592;8.662;2022-08-05T10:22:48;19.60;;;18.60;;
11039;SDS011;5573;49.592;8.662;2022-08-05T10:25:37;21.23;;;20.13;;
11039;SDS011;5573;49.592;8.662;2022-08-05T10:28:25;21.10;;;20.00;;
11039;SDS011;5573;49.592;8.662;2022-08-05T10:31:16;19.88;;;18.88;;
11039;SDS011;5573;49.592;8.662;2022-08-05T10:34:24;21.52;;;20.42;;
11039;SDS011;5573;49.592;8.662;2022-08-05T10:37:18;21.00;;;19.90;;
11039;SDS011;5573;49.592;8.662;2022-08-05T10:40:15;21.40;;;20.30;;
11039;SDS011;5573;49.592;8.662;2022-08-05T10:43:17;18.67;;;17.67;;
11039;SDS011;5573;49.592;8.662;2022-08-05T10:46:21;15.38;;;14.57;;
11039;SDS011;5573;49.592;8.662;2022-08-05T10:49:09;15.68;;;14.88;;
11039;SDS011;5573;49.592;8.662;2022-08-05T10:52:02;12.32;;;11.73;;
11039;SDS011;5573;49.592;8.662;2022-08-05T10:55:03;12.52;;;11.88;;
11039;SDS011;5573;49.592;8.662;2022-08-05T10:58:05;13.10;;;12.40;;
11039;SDS011;5573;49.592;8.662;2022-08-05T11:00:57;12.27;;;11.68;;
11039;SDS011;5573;49.592;8.662;2022-08-05T11:03:58;12.35;;;11.75;;
11039;SDS011;5573;49.592;8.662;2022-08-05T11:07:03;11.23;;;10.63;;
11039;SDS011;5573;49.592;8.662;2022-08-05T11:09:54;10.35;;;9.85;;
11039;SDS011;5573;49.592;8.662;2022-08-05T11:12:57;9.40;;;8.90;;
11039;SDS011;5573;49.592;8.662;2022-08-05T11:15:47;9.25;;;8.75;;
11039;SDS011;5573;49.592;8.662;2022-08-05T11:18:47;9.30;;;8.80;;
11039;SDS011;5573;49.592;8.662;2022-08-05T11:21:37;9.93;;;9.43;;
11039;SDS011;5573;49.592;8.662;2022-08-05T11:24:35;9.57;;;9.07;;
11039;SDS011;5573;49.592;8.662;2022-08-05T11:27:36;10.85;;;10.15;;
11039;SDS011;5573;49.592;8.662;2022-08-05T11:34:37;11.02;;;10.43;;
11039;SDS011;5573;49.592;8.662;2022-08-05T11:41:06;9.73;;;9.23;;
11039;SDS011;5573;49.592;8.662;2022-08-05T11:44:15;9.02;;;8.60;;
11039;SDS011;5573;49.592;8.662;2022-08-05T11:47:27;8.85;;;8.35;;
11039;SDS011;5573;49.592;8.662;2022-08-05T11:50:36;8.30;;;7.90;;
11039;SDS011;5573;49.592;8.662;2022-08-05T11:53:24;7.60;;;7.20;;
11039;SDS011;5573;49.592;8.662;2022-08-05T11:56:24;7.47;;;7.07;;
11039;SDS011;5573;49.592;8.662;2022-08-05T11:59:27;7.57;;;7.18;;
11039;SDS011;5573;49.592;8.662;2022-08-05T12:02:36;7.90;;;7.50;;
11039;SDS011;5573;49.592;8.662;2022-08-05T12:05:26;9.18;;;8.68;;
11039;SDS011;5573;49.592;8.662;2022-08-05T12:08:29;9.82;;;9.32;;
11039;SDS011;5573;49.592;8.662;2022-08-05T12:11:18;11.18;;;10.57;;
11039;SDS011;5573;49.592;8.662;2022-08-05T12:14:08;8.98;;;8.52;;
11039;SDS011;5573;49.592;8.662;2022-08-05T12:16:56;9.90;;;9.38;;
11039;SDS011;5573;49.592;8.662;2022-08-05T12:19:49;9.93;;;9.35;;
11039;SDS011;5573;49.592;8.662;2022-08-05T12:23:07;10.50;;;10.00;;
11039;SDS011;5573;49.592;8.662;2022-08-05T12:25:56;10.32;;;9.82;;
11039;SDS011;5573;49.592;8.662;2022-08-05T12:28:44;11.43;;;10.57;;
11039;SDS011;5573;49.592;8.662;2022-08-05T12:31:32;10.85;;;10.25;;
11039;SDS011;5573;49.592;8.662;2022-08-05T12:34:36;10.60;;;10.10;;
11039;SDS011;5573;49.592;8.662;2022-08-05T12:37:26;11.25;;;10.45;;
11039;SDS011;5573;49.592;8.662;2022-08-05T12:40:17;11.73;;;11.02;;
11039;SDS011;5573;49.592;8.662;2022-08-05T12:43:15;10.93;;;10.32;;
11039;SDS011;5573;49.592;8.662;2022-08-05T12:46:06;9.90;;;9.40;;
11039;SDS011;5573;49.592;8.662;2022-08-05T12:49:15;10.20;;;9.70;;
11039;SDS011;5573;49.592;8.662;2022-08-05T12:52:10;11.20;;;10.60;;
11039;SDS011;5573;49.592;8.662;2022-08-05T12:55:19;10.63;;;10.13;;
11039;SDS011;5573;49.592;8.662;2022-08-05T12:58:21;11.55;;;10.85;;
11039;SDS011;5573;49.592;8.662;2022-08-05T13:01:30;12.38;;;11.68;;
11039;SDS011;5573;49.592;8.662;2022-08-05T13:04:39;12.63;;;11.93;;
11039;SDS011;5573;49.592;8.662;2022-08-05T13:07:41;12.55;;;11.95;;
11039;SDS011;5573;49.592;8.662;2022-08-05T13:10:48;14.07;;;13.38;;
11039;SDS011;5573;49.592;8.662;2022-08-05T13:13:36;14.18;;;13.48;;
11039;SDS011;5573;49.592;8.662;2022-08-05T13:16:48;12.70;;;12.02;;
11039;SDS011;5573;49.592;8.662;2022-08-05T13:19:56;12.73;;;12.02;;
11039;SDS011;5573;49.592;8.662;2022-08-05T13:22:45;13.10;;;12.30;;
11039;SDS011;5573;49.592;8.662;2022-08-05T13:25:35;12.70;;;12.00;;
11039;SDS011;5573;49.592;8.662;2022-08-05T13:28:45;11.52;;;10.93;;
11039;SDS011;5573;49.592;8.662;2022-08-05T13:31:38;11.40;;;10.80;;
11039;SDS011;5573;49.592;8.662;2022-08-05T13:34:46;11.48;;;10.88;;
11039;SDS011;5573;49.592;8.662;2022-08-05T13:37:36;10.23;;;9.73;;
11039;SDS011;5573;49.592;8.662;2022-08-05T13:40:25;10.25;;;9.75;;
11039;SDS011;5573;49.592;8.662;2022-08-05T13:43:33;11.15;;;10.55;;
11039;SDS011;5573;49.592;8.662;2022-08-05T13:46:38;13.10;;;12.27;;
11039;SDS011;5573;49.592;8.662;2022-08-05T13:49:46;13.23;;;12.52;;
11039;SDS011;5573;49.592;8.662;2022-08-05T13:52:35;12.63;;;11.85;;
11039;SDS011;5573;49.592;8.662;2022-08-05T13:55:23;11.65;;;11.00;;
11039;SDS011;5573;49.592;8.662;2022-08-05T13:58:31;9.68;;;9.18;;
11039;SDS011;5573;49.592;8.662;2022-08-05T14:01:25;9.57;;;9.07;;
11039;SDS011;5573;49.592;8.662;2022-08-05T14:04:32;9.02;;;8.52;;
11039;SDS011;5573;49.592;8.662;2022-08-05T14:07:39;8.02;;;7.63;;
11039;SDS011;5573;49.592;8.662;2022-08-05T14:10:49;7.80;;;7.40;;
11039;SDS011;5573;49.592;8.662;2022-08-05T14:13:37;7.70;;;7.30;;
11039;SDS011;5573;49.592;8.662;2022-08-05T14:16:25;7.68;;;7.28;;
11039;SDS011;5573;49.592;8.662;2022-08-05T14:19:13;7.57;;;7.18;;
11039;SDS011;5573;49.592;8.662;2022-08-05T14:22:02;7.72;;;7.32;;
11039;SDS011;5573;49.592;8.662;2022-08-05T14:24:57;7.95;;;7.45;;
11039;SDS011;5573;49.592;8.662;2022-08-05T14:27:45;7.93;;;7.53;;
11039;SDS011;5573;49.592;8.662;2022-08-05T14:30:35;8.38;;;7.95;;
11039;SDS011;5573;49.592;8.662;2022-08-05T14:33:23;8.48;;;8.07;;
11039;SDS011;5573;49.592;8.662;2022-08-05T14:36:11;10.50;;;10.00;;
11039;SDS011;5573;49.592;8.662;2022-08-05T14:39:00;10.90;;;10.30;;
11039;SDS011;5573;49.592;8.662;2022-08-05T14:41:49;9.93;;;9.40;;
11039;SDS011;5573;49.592;8.662;2022-08-05T14:44:57;10.15;;;9.65;;
11039;SDS011;5573;49.592;8.662;2022-08-05T14:47:45;9.77;;;9.27;;
11039;SDS011;5573;49.592;8.662;2022-08-05T14:50:50;9.45;;;8.95;;
11039;SDS011;5573;49.592;8.662;2022-08-05T14:53:38;9.65;;;9.15;;
11039;SDS011;5573;49.592;8.662;2022-08-05T14:56:31;10.95;;;10.35;;
11039;SDS011;5573;49.592;8.662;2022-08-05T14:59:23;10.77;;;10.18;;
11039;SDS011;5573;49.592;8.662;2022-08-05T15:02:15;11.65;;;10.95;;
11039;SDS011;5573;49.592;8.662;2022-08-05T15:05:03;13.02;;;12.32;;
11039;SDS011;5573;49.592;8.662;2022-08-05T15:07:59;14.65;;;13.65;;
11039;SDS011;5573;49.592;8.662;2022-08-05T15:10:57;16.60;;;15.13;;
11039;SDS011;5573;49.592;8.662;2022-08-05T15:13:47;16.65;;;15.65;;
11039;SDS011;5573;49.592;8.662;2022-08-05T15:16:36;20.35;;;19.30;;
11039;SDS011;5573;49.592;8.662;2022-08-05T15:19:25;27.80;;;26.00;;
11039;SDS011;5573;49.592;8.662;2022-08-05T15:22:16;26.60;;;25.20;;
11039;SDS011;5573;49.592;8.662;2022-08-05T15:25:07;23.92;;;22.73;;
11039;SDS011;5573;49.592;8.662;2022-08-05T15:27:59;23.13;;;21.92;;
11039;SDS011;5573;49.592;8.662;2022-08-05T15:30:49;25.55;;;24.15;;
11039;SDS011;5573;49.592;8.662;2022-08-05T15:33:38;29.05;;;27.48;;
11039;SDS011;5573;49.592;8.662;2022-08-05T15:36:47;32.83;;;31.10;;
11039;SDS011;5573;49.592;8.662;2022-08-05T15:39:35;33.40;;;31.65;;
11039;SDS011;5573;49.592;8.662;2022-08-05T15:42:43;35.15;;;33.28;;
11039;SDS011;5573;49.592;8.662;2022-08-05T15:45:41;37.83;;;35.83;;
11039;SDS011;5573;49.592;8.662;2022-08-05T15:48:32;39.97;;;37.88;;
11039;SDS011;5573;49.592;8.662;2022-08-05T15:51:23;42.47;;;40.17;;
11039;SDS011;5573;49.592;8.662;2022-08-05T15:54:32;44.00;;;41.63;;
11039;SDS011;5573;49.592;8.662;2022-08-05T15:57:23;45.67;;;43.22;;
11039;SDS011;5573;49.592;8.662;2022-08-05T16:00:18;43.85;;;41.42;;
11039;SDS011;5573;49.592;8.662;2022-08-05T16:03:18;39.28;;;37.17;;
11039;SDS011;5573;49.592;8.662;2022-08-05T16:06:08;39.08;;;36.85;;
11039;SDS011;5573;49.592;8.662;2022-08-05T16:08:57;41.25;;;38.90;;
11039;SDS011;5573;49.592;8.662;2022-08-05T16:11:45;41.92;;;39.47;;
11039;SDS011;5573;49.592;8.662;2022-08-05T16:14:38;42.15;;;39.80;;
11039;SDS011;5573;49.592;8.662;2022-08-05T16:17:27;44.72;;;42.15;;
11039;SDS011;5573;49.592;8.662;2022-08-05T16:20:16;45.15;;;42.58;;
11039;SDS011;5573;49.592;8.662;2022-08-05T16:23:06;44.47;;;42.10;;
11039;SDS011;5573;49.592;8.662;2022-08-05T16:26:02;46.47;;;43.67;;
11039;SDS011;5573;49.592;8.662;2022-08-05T16:28:53;43.92;;;41.53;;
11039;SDS011;5573;49.592;8.662;2022-08-05T16:31:41;42.35;;;40.03;;
11039;SDS011;5573;49.592;8.662;2022-08-05T16:34:43;44.95;;;42.45;;
11039;SDS011;5573;49.592;8.662;2022-08-05T16:37:36;46.78;;;44.17;;
11039;SDS011;5573;49.592;8.662;2022-08-05T16:40:47;47.72;;;45.13;;
11039;SDS011;5573;49.592;8.662;2022-08-05T16:43:46;48.13;;;45.50;;
11039;SDS011;5573;49.592;8.662;2022-08-05T16:46:41;45.60;;;43.10;;
11039;SDS011;5573;49.592;8.662;2022-08-05T16:49:41;47.22;;;44.63;;
11039;SDS011;5573;49.592;8.662;2022-08-05T16:52:30;49.40;;;46.65;;
11039;SDS011;5573;49.592;8.662;2022-08-05T16:55:19;49.42;;;46.72;;
11039;SDS011;5573;49.592;8.662;2022-08-05T16:58:11;52.38;;;49.58;;
11039;SDS011;5573;49.592;8.662;2022-08-05T17:01:00;52.42;;;49.58;;
11039;SDS011;5573;49.592;8.662;2022-08-05T17:03:52;51.33;;;48.33;;
11039;SDS011;5573;49.592;8.662;2022-08-05T17:06:41;49.28;;;46.63;;
11039;SDS011;5573;49.592;8.662;2022-08-05T17:09:39;48.15;;;45.60;;
11039;SDS011;5573;49.592;8.662;2022-08-05T17:12:44;50.63;;;47.88;;
11039;SDS011;5573;49.592;8.662;2022-08-05T17:15:38;50.75;;;48.00;;
11039;SDS011;5573;49.592;8.662;2022-08-05T17:18:36;47.97;;;45.40;;
11039;SDS011;5573;49.592;8.662;2022-08-05T17:21:24;46.13;;;43.63;;
11039;SDS011;5573;49.592;8.662;2022-08-05T17:24:22;46.40;;;43.90;;
11039;SDS011;5573;49.592;8.662;2022-08-05T17:27:28;47.95;;;45.35;;
11039;SDS011;5573;49.592;8.662;2022-08-05T17:30:20;47.72;;;45.17;;
11039;SDS011;5573;49.592;8.662;2022-08-05T17:33:15;53.35;;;50.42;;